createdAt,value
2019-02-17T00:01:54.212Z,5.09
2019-02-17T00:04:23.079Z,4.93
2019-02-17T00:06:51.945Z,4.88
2019-02-17T00:09:20.825Z,4.84
2019-02-17T00:11:49.693Z,4.81
2019-02-17T00:14:18.565Z,4.75
2019-02-17T00:16:47.426Z,4.71
2019-02-17T00:19:16.294Z,4.78
2019-02-17T00:21:45.201Z,4.71
2019-02-17T00:24:14.045Z,4.62
2019-02-17T00:26:42.911Z,4.72
2019-02-17T00:29:11.783Z,4.67
2019-02-17T00:31:40.648Z,4.74
2019-02-17T00:34:09.533Z,4.71
2019-02-17T00:36:38.401Z,4.71
2019-02-17T00:39:07.275Z,4.69
2019-02-17T00:41:37.087Z,4.61
2019-02-17T00:44:05.942Z,4.53
2019-02-17T00:46:34.820Z,4.50
2019-02-17T00:49:03.702Z,4.60
2019-02-17T00:51:32.561Z,4.65
2019-02-17T00:54:01.447Z,4.63
2019-02-17T00:56:30.304Z,4.59
2019-02-17T00:59:09.347Z,4.55
2019-02-17T01:01:29.772Z,4.46
2019-02-17T01:03:58.630Z,4.37
2019-02-17T01:06:27.501Z,4.30
2019-02-17T01:08:56.344Z,4.44
2019-02-17T01:11:25.219Z,4.22
2019-02-17T01:13:54.068Z,4.20
2019-02-17T01:16:24.989Z,4.20
2019-02-17T01:18:53.520Z,4.20
2019-02-17T01:21:22.374Z,4.14
2019-02-17T01:23:51.250Z,4.38
2019-02-17T01:26:20.095Z,4.32
2019-02-17T01:28:48.960Z,4.27
2019-02-17T01:31:18.067Z,4.25
2019-02-17T01:33:46.911Z,4.08
2019-02-17T01:36:15.785Z,4.09
2019-02-17T01:38:44.641Z,4.19
2019-02-17T01:41:13.561Z,4.12
2019-02-17T01:43:42.484Z,4.09
2019-02-17T01:46:11.341Z,4.04
2019-02-17T01:48:40.200Z,4.00
2019-02-17T01:51:09.048Z,4.07
2019-02-17T01:53:37.918Z,4.28
2019-02-17T01:56:06.784Z,4.25
2019-02-17T01:58:35.666Z,4.21
2019-02-17T02:01:04.568Z,4.16
2019-02-17T02:03:33.457Z,4.00
2019-02-17T02:06:02.307Z,3.97
2019-02-17T02:08:31.165Z,3.97
2019-02-17T02:11:00.052Z,4.04
2019-02-17T02:13:28.940Z,4.03
2019-02-17T02:15:57.818Z,4.09
2019-02-17T02:18:26.689Z,4.03
2019-02-17T02:20:55.568Z,4.00
2019-02-17T02:23:24.449Z,3.92
2019-02-17T02:25:53.315Z,3.98
2019-02-17T02:28:22.179Z,3.85
2019-02-17T02:30:51.055Z,3.87
2019-02-17T02:33:19.951Z,3.88
2019-02-17T02:35:48.806Z,3.99
2019-02-17T02:38:18.094Z,4.01
2019-02-17T02:40:46.912Z,4.11
2019-02-17T02:43:15.771Z,4.06
2019-02-17T02:45:44.638Z,4.05
2019-02-17T02:48:13.519Z,4.04
2019-02-17T02:50:42.381Z,4.02
2019-02-17T02:53:11.274Z,3.90
2019-02-17T02:55:40.145Z,3.82
2019-02-17T02:58:08.982Z,3.90
2019-02-17T03:00:37.863Z,3.80
2019-02-17T03:03:06.710Z,3.82
2019-02-17T03:05:37.213Z,3.83
2019-02-17T03:08:06.081Z,3.80
2019-02-17T03:10:34.957Z,3.86
2019-02-17T03:13:03.824Z,3.77
2019-02-17T03:15:32.693Z,3.77
2019-02-17T03:18:01.571Z,3.81
2019-02-17T03:20:30.427Z,3.74
2019-02-17T03:22:59.274Z,3.62
2019-02-17T03:25:28.147Z,3.37
2019-02-17T03:27:57.016Z,3.31
2019-02-17T03:30:25.868Z,3.41
2019-02-17T03:32:54.743Z,3.37
2019-02-17T03:35:23.958Z,3.26
2019-02-17T03:37:52.864Z,3.27
2019-02-17T03:40:21.717Z,3.19
2019-02-17T03:42:51.338Z,3.19
2019-02-17T03:45:20.239Z,3.18
2019-02-17T03:47:49.105Z,3.05
2019-02-17T03:50:17.975Z,3.24
2019-02-17T03:52:46.840Z,3.25
2019-02-17T03:55:15.695Z,3.19
2019-02-17T03:57:44.617Z,3.22
2019-02-17T04:00:16.828Z,2.95
2019-02-17T04:02:44.056Z,2.91
2019-02-17T04:05:13.221Z,3.01
2019-02-17T04:07:42.105Z,2.99
2019-02-17T04:10:10.966Z,3.05
2019-02-17T04:12:39.832Z,3.09
2019-02-17T04:15:09.060Z,3.18
2019-02-17T04:17:37.938Z,3.10
2019-02-17T04:20:08.032Z,3.10
2019-02-17T04:22:36.893Z,3.13
2019-02-17T04:25:06.834Z,3.05
2019-02-17T04:27:35.689Z,3.10
2019-02-17T04:30:05.597Z,3.22
2019-02-17T04:32:36.083Z,3.24
2019-02-17T04:35:05.395Z,3.28
2019-02-17T04:37:34.605Z,3.26
2019-02-17T04:40:03.632Z,3.19
2019-02-17T04:42:32.534Z,3.16
2019-02-17T04:45:01.384Z,3.08
2019-02-17T04:47:30.933Z,3.03
2019-02-17T04:49:59.863Z,3.06
2019-02-17T04:52:28.767Z,3.12
2019-02-17T04:54:57.618Z,2.89
2019-02-17T04:57:26.501Z,2.89
2019-02-17T04:59:55.428Z,2.69
2019-02-17T05:02:24.280Z,2.70
2019-02-17T05:04:54.617Z,2.77
2019-02-17T05:07:23.481Z,2.81
2019-02-17T05:09:52.344Z,2.79
2019-02-17T05:12:21.199Z,2.73
2019-02-17T05:14:50.091Z,2.90
2019-02-17T05:17:18.944Z,2.94
2019-02-17T05:19:47.806Z,2.82
2019-02-17T05:22:16.658Z,2.83
2019-02-17T05:24:45.512Z,2.69
2019-02-17T05:27:14.385Z,2.77
2019-02-17T05:29:43.247Z,2.76
2019-02-17T05:32:12.195Z,2.68
2019-02-17T05:34:41.048Z,2.87
2019-02-17T05:37:09.909Z,2.93
2019-02-17T05:39:38.763Z,2.91
2019-02-17T05:42:07.641Z,2.69
2019-02-17T05:44:36.490Z,2.57
2019-02-17T05:47:05.347Z,2.59
2019-02-17T05:49:34.232Z,2.53
2019-02-17T05:52:03.087Z,2.62
2019-02-17T05:54:31.951Z,2.83
2019-02-17T05:57:00.801Z,2.76
2019-02-17T05:59:29.668Z,2.59
2019-02-17T06:01:58.549Z,2.65
2019-02-17T06:04:27.398Z,2.68
2019-02-17T06:06:56.277Z,2.76
2019-02-17T06:09:25.155Z,2.62
2019-02-17T06:11:54.063Z,2.46
2019-02-17T06:14:22.959Z,2.35
2019-02-17T06:16:51.819Z,2.42
2019-02-17T06:19:20.671Z,2.47
2019-02-17T06:21:49.538Z,2.56
2019-02-17T06:24:18.391Z,2.67
2019-02-17T06:26:47.239Z,2.72
2019-02-17T06:29:16.117Z,2.63
2019-02-17T06:31:45.012Z,2.61
2019-02-17T06:34:13.869Z,2.53
2019-02-17T06:36:42.758Z,2.66
2019-02-17T06:39:11.646Z,2.53
2019-02-17T06:41:40.495Z,2.56
2019-02-17T06:44:09.361Z,2.46
2019-02-17T06:46:39.879Z,2.36
2019-02-17T06:49:08.763Z,2.13
2019-02-17T06:51:37.673Z,2.58
2019-02-17T06:54:06.551Z,2.52
2019-02-17T06:56:37.051Z,2.53
2019-02-17T06:59:05.971Z,2.56
2019-02-17T07:01:34.840Z,2.66
2019-02-17T07:04:03.703Z,2.76
2019-02-17T07:06:37.248Z,2.74
2019-02-17T07:09:06.475Z,2.79
2019-02-17T07:11:35.342Z,2.79
2019-02-17T07:14:04.387Z,2.83
2019-02-17T07:16:33.251Z,2.91
2019-02-17T07:19:03.410Z,2.95
2019-02-17T07:21:32.294Z,2.96
2019-02-17T07:24:01.145Z,3.02
2019-02-17T07:26:30.024Z,3.04
2019-02-17T07:28:58.889Z,3.16
2019-02-17T07:31:34.715Z,3.10
2019-02-17T07:33:58.367Z,3.20
2019-02-17T07:36:27.289Z,3.31
2019-02-17T07:38:56.197Z,3.28
2019-02-17T07:41:25.065Z,3.41
2019-02-17T07:43:53.918Z,3.46
2019-02-17T07:46:22.804Z,3.35
2019-02-17T07:48:51.666Z,3.35
2019-02-17T07:51:20.528Z,3.43
2019-02-17T07:53:49.428Z,3.58
2019-02-17T07:56:18.294Z,3.71
2019-02-17T07:58:47.161Z,3.70
2019-02-17T08:01:16.032Z,3.87
2019-02-17T08:03:44.901Z,3.91
2019-02-17T08:06:13.797Z,4.11
2019-02-17T08:08:42.655Z,4.23
2019-02-17T08:11:11.513Z,4.29
2019-02-17T08:13:40.414Z,4.43
2019-02-17T08:16:09.272Z,4.59
2019-02-17T08:18:38.132Z,4.68
2019-02-17T08:21:07.006Z,4.70
2019-02-17T08:23:35.866Z,4.58
2019-02-17T08:26:04.747Z,4.79
2019-02-17T08:28:33.613Z,4.89
2019-02-17T08:31:02.488Z,4.98
2019-02-17T08:33:31.363Z,5.08
2019-02-17T08:36:00.257Z,5.17
2019-02-17T08:38:29.165Z,5.23
2019-02-17T08:40:58.027Z,5.30
2019-02-17T08:43:26.904Z,5.45
2019-02-17T08:45:55.760Z,5.58
2019-02-17T08:48:24.672Z,5.69
2019-02-17T08:50:53.575Z,5.87
2019-02-17T08:53:22.432Z,5.89
2019-02-17T08:55:51.378Z,6.12
2019-02-17T08:58:20.270Z,6.19
2019-02-17T09:00:49.188Z,6.30
2019-02-17T09:03:18.077Z,6.37
2019-02-17T09:05:46.942Z,6.51
2019-02-17T09:08:15.505Z,6.56
2019-02-17T09:10:44.406Z,6.65
2019-02-17T09:13:12.960Z,6.75
2019-02-17T09:15:41.521Z,6.59
2019-02-17T09:18:10.408Z,6.58
2019-02-17T09:20:38.984Z,6.73
2019-02-17T09:23:07.563Z,6.71
2019-02-17T09:25:37.670Z,6.72
2019-02-17T09:28:06.279Z,6.88
2019-02-17T09:30:34.918Z,6.97
2019-02-17T09:33:03.494Z,7.01
2019-02-17T09:35:32.078Z,6.90
2019-02-17T09:38:00.727Z,7.06
2019-02-17T09:40:29.289Z,7.15
2019-02-17T09:42:57.864Z,7.05
2019-02-17T09:45:26.432Z,7.30
2019-02-17T09:47:54.992Z,7.30
2019-02-17T09:50:23.885Z,7.34
2019-02-17T09:52:52.488Z,7.42
2019-02-17T09:55:21.071Z,7.43
2019-02-17T09:57:49.629Z,7.59
2019-02-17T10:00:18.224Z,7.74
2019-02-17T10:02:46.791Z,7.80
2019-02-17T10:05:15.625Z,7.85
2019-02-17T10:07:44.251Z,7.98
2019-02-17T10:10:17.881Z,8.00
2019-02-17T10:12:46.454Z,8.10
2019-02-17T10:15:15.052Z,8.09
2019-02-17T10:17:43.651Z,8.33
2019-02-17T10:20:18.002Z,8.27
2019-02-17T10:22:46.561Z,8.31
2019-02-17T10:25:15.157Z,8.38
2019-02-17T10:27:43.742Z,8.51
2019-02-17T10:30:16.419Z,8.61
2019-02-17T10:32:44.997Z,8.75
2019-02-17T10:35:13.608Z,8.81
2019-02-17T10:37:42.206Z,8.99
2019-02-17T10:40:18.432Z,8.90
2019-02-17T10:42:47.026Z,9.01
2019-02-17T10:45:15.599Z,9.05
2019-02-17T10:47:44.172Z,9.10
2019-02-17T10:50:13.480Z,9.14
2019-02-17T10:52:42.038Z,9.15
2019-02-17T10:55:12.467Z,9.21
2019-02-17T10:57:41.041Z,9.25
2019-02-17T11:00:13.030Z,9.34
2019-02-17T11:02:47.132Z,9.36
2019-02-17T11:05:12.312Z,9.42
2019-02-17T11:07:40.881Z,9.71
2019-02-17T11:10:11.694Z,9.71
2019-02-17T11:12:40.440Z,9.75
2019-02-17T11:15:15.184Z,9.95
2019-02-17T11:17:43.787Z,9.95
2019-02-17T11:20:12.350Z,9.99
2019-02-17T11:22:40.959Z,9.93
2019-02-17T11:25:09.565Z,10.02
2019-02-17T11:27:38.137Z,10.02
2019-02-17T11:30:12.441Z,10.03
2019-02-17T11:32:41.032Z,10.07
2019-02-17T11:35:09.602Z,10.09
2019-02-17T11:37:38.171Z,10.20
2019-02-17T11:40:09.816Z,10.20
2019-02-17T11:42:38.378Z,10.29
2019-02-17T11:45:13.541Z,10.29
2019-02-17T11:47:42.125Z,10.31
2019-02-17T11:50:10.860Z,10.48
2019-02-17T11:52:39.622Z,10.49
2019-02-17T11:55:11.329Z,10.49
2019-02-17T11:57:39.896Z,10.53
2019-02-17T12:00:14.567Z,10.53
2019-02-17T12:02:43.267Z,10.72
2019-02-17T12:05:11.981Z,10.86
2019-02-17T12:07:40.547Z,10.84
2019-02-17T12:10:11.056Z,10.84
2019-02-17T12:12:40.016Z,11.15
2019-02-17T12:15:11.447Z,11.15
2019-02-17T12:17:40.002Z,11.02
2019-02-17T12:20:24.728Z,11.02
2019-02-17T12:22:55.002Z,11.16
2019-02-17T12:25:25.221Z,11.08
2019-02-17T12:27:55.460Z,11.07
2019-02-17T12:30:24.026Z,11.15
2019-02-17T12:32:52.618Z,11.16
2019-02-17T12:35:21.191Z,11.19
2019-02-17T12:37:51.333Z,11.37
2019-02-17T12:40:19.938Z,11.45
2019-02-17T12:42:48.509Z,11.47
2019-02-17T12:45:18.381Z,11.43
2019-02-17T12:47:55.443Z,11.42
2019-02-17T12:50:17.498Z,11.55
2019-02-17T12:52:47.730Z,11.54
2019-02-17T12:55:16.539Z,11.52
2019-02-17T12:57:45.153Z,11.62
2019-02-17T13:00:16.511Z,11.69
2019-02-17T13:02:45.094Z,11.66
2019-02-17T13:05:13.723Z,11.75
2019-02-17T13:07:42.951Z,11.91
2019-02-17T13:10:12.400Z,11.95
2019-02-17T13:12:40.973Z,11.85
2019-02-17T13:15:13.726Z,11.66
2019-02-17T13:17:42.303Z,11.75
2019-02-17T13:20:15.317Z,11.69
2019-02-17T13:22:43.908Z,11.77
2019-02-17T13:25:15.001Z,11.74
2019-02-17T13:27:43.596Z,11.85
2019-02-17T13:30:20.572Z,11.95
2019-02-17T13:32:49.142Z,11.95
2019-02-17T13:35:17.740Z,12.07
2019-02-17T13:37:46.309Z,12.05
2019-02-17T13:40:15.045Z,11.95
2019-02-17T13:42:43.663Z,11.84
2019-02-17T13:45:14.732Z,11.84
2019-02-17T13:47:43.343Z,11.75
2019-02-17T13:50:15.864Z,11.86
2019-02-17T13:52:44.471Z,12.11
2019-02-17T13:55:13.116Z,11.95
2019-02-17T13:57:41.770Z,12.03
2019-02-17T14:00:15.531Z,12.06
2019-02-17T14:02:44.126Z,12.07
2019-02-17T14:05:12.705Z,12.06
2019-02-17T14:07:41.284Z,12.05
2019-02-17T14:10:11.720Z,12.08
2019-02-17T14:12:40.358Z,11.96
2019-02-17T14:15:11.797Z,11.94
2019-02-17T14:17:40.376Z,12.03
2019-02-17T14:20:10.497Z,11.90
2019-02-17T14:22:39.103Z,12.11
2019-02-17T14:25:11.016Z,12.15
2019-02-17T14:27:39.724Z,12.24
2019-02-17T14:30:13.791Z,12.18
2019-02-17T14:32:42.396Z,12.19
2019-02-17T14:35:10.952Z,12.17
2019-02-17T14:37:39.513Z,12.04
2019-02-17T14:40:13.361Z,11.98
2019-02-17T14:42:41.925Z,12.00
2019-02-17T14:45:15.016Z,11.99
2019-02-17T14:47:43.640Z,11.90
2019-02-17T14:50:13.147Z,11.79
2019-02-17T14:52:41.767Z,11.81
2019-02-17T14:55:11.668Z,11.81
2019-02-17T14:57:40.296Z,11.58
2019-02-17T15:00:18.189Z,11.56
2019-02-17T15:02:46.784Z,11.56
2019-02-17T15:05:15.352Z,11.53
2019-02-17T15:07:43.970Z,11.55
2019-02-17T15:10:14.078Z,11.37
2019-02-17T15:12:42.703Z,11.37
2019-02-17T15:15:12.801Z,11.18
2019-02-17T15:17:41.504Z,11.11
2019-02-17T15:20:12.755Z,11.08
2019-02-17T15:22:41.326Z,11.08
2019-02-17T15:25:11.648Z,11.01
2019-02-17T15:27:40.234Z,10.94
2019-02-17T15:30:11.843Z,10.99
2019-02-17T15:32:40.428Z,11.31
2019-02-17T15:35:09.182Z,11.43
2019-02-17T15:37:37.828Z,11.49
2019-02-17T15:40:11.629Z,11.56
2019-02-17T15:42:42.904Z,11.61
2019-02-17T15:45:13.273Z,11.54
2019-02-17T15:47:41.853Z,11.55
2019-02-17T15:50:14.147Z,11.31
2019-02-17T15:52:42.782Z,11.21
2019-02-17T15:55:15.104Z,11.14
2019-02-17T15:57:43.717Z,11.22
2019-02-17T16:00:20.137Z,10.97
2019-02-17T16:02:48.719Z,11.07
2019-02-17T16:05:17.298Z,10.95
2019-02-17T16:07:45.888Z,11.01
2019-02-17T16:10:16.031Z,10.88
2019-02-17T16:12:44.604Z,10.88
2019-02-17T16:15:18.486Z,10.76
2019-02-17T16:17:47.079Z,10.58
2019-02-17T16:20:15.660Z,10.58
2019-02-17T16:22:44.252Z,10.30
2019-02-17T16:25:14.558Z,10.30
2019-02-17T16:27:43.122Z,10.41
2019-02-17T16:30:14.575Z,10.50
2019-02-17T16:32:43.167Z,10.49
2019-02-17T16:35:11.924Z,10.42
2019-02-17T16:37:40.534Z,10.25
2019-02-17T16:40:11.694Z,10.43
2019-02-17T16:42:40.274Z,10.43
2019-02-17T16:45:11.521Z,10.04
2019-02-17T16:47:40.107Z,10.04
2019-02-17T16:50:15.323Z,10.08
2019-02-17T16:52:43.916Z,9.85
2019-02-17T16:55:12.668Z,9.85
2019-02-17T16:57:41.257Z,9.86
2019-02-17T17:00:19.130Z,9.89
2019-02-17T17:02:48.034Z,9.89
2019-02-17T17:05:16.684Z,9.86
2019-02-17T17:07:45.289Z,9.67
2019-02-17T17:10:14.446Z,9.67
2019-02-17T17:12:43.189Z,9.58
2019-02-17T17:15:12.325Z,9.71
2019-02-17T17:17:40.980Z,9.59
2019-02-17T17:20:17.602Z,9.58
2019-02-17T17:22:46.291Z,9.58
2019-02-17T17:25:15.305Z,9.64
2019-02-17T17:27:43.897Z,9.54
2019-02-17T17:30:16.520Z,9.53
2019-02-17T17:32:45.121Z,9.54
2019-02-17T17:35:14.056Z,9.33
2019-02-17T17:37:42.688Z,9.13
2019-02-17T17:40:13.381Z,9.16
2019-02-17T17:42:41.940Z,9.27
2019-02-17T17:45:18.573Z,9.31
2019-02-17T17:47:47.164Z,9.26
2019-02-17T17:50:17.007Z,9.24
2019-02-17T17:52:45.579Z,9.26
2019-02-17T17:55:17.635Z,9.11
2019-02-17T17:57:46.365Z,8.83
2019-02-17T18:00:20.657Z,8.69
2019-02-17T18:02:49.248Z,8.71
2019-02-17T18:05:17.817Z,8.57
2019-02-17T18:07:47.313Z,8.60
2019-02-17T18:10:16.840Z,8.45
2019-02-17T18:12:45.425Z,8.52
2019-02-17T18:15:15.591Z,8.75
2019-02-17T18:17:53.501Z,8.76
2019-02-17T18:20:14.783Z,8.64
2019-02-17T18:22:43.552Z,8.43
2019-02-17T18:25:13.947Z,8.37
2019-02-17T18:27:42.621Z,8.22
2019-02-17T18:30:16.888Z,8.23
2019-02-17T18:32:45.749Z,8.23
2019-02-17T18:35:19.637Z,8.22
2019-02-17T18:37:45.001Z,8.16
2019-02-17T18:40:20.799Z,8.06
2019-02-17T18:42:49.382Z,7.99
2019-02-17T18:45:17.981Z,7.99
2019-02-17T18:47:49.387Z,8.04
2019-02-17T18:50:19.092Z,7.85
2019-02-17T18:52:47.687Z,7.88
2019-02-17T18:55:16.311Z,7.78
2019-02-17T18:57:49.983Z,7.71
2019-02-17T19:00:23.425Z,7.53
2019-02-17T19:02:52.027Z,7.37
2019-02-17T19:05:31.140Z,7.16
2019-02-17T19:07:50.949Z,7.27
2019-02-17T19:10:19.544Z,7.47
2019-02-17T19:12:48.142Z,7.49
2019-02-17T19:15:20.694Z,7.35
2019-02-17T19:17:49.448Z,7.44
2019-02-17T19:20:32.194Z,7.29
2019-02-17T19:23:00.952Z,7.21
2019-02-17T19:25:29.557Z,7.28
2019-02-17T19:27:59.695Z,7.30
2019-02-17T19:30:28.271Z,7.14
2019-02-17T19:32:56.874Z,6.91
2019-02-17T19:35:25.475Z,6.89
2019-02-17T19:37:54.679Z,7.09
2019-02-17T19:40:23.293Z,7.03
2019-02-17T19:42:51.855Z,7.05
2019-02-17T19:45:21.670Z,6.91
2019-02-17T19:47:50.268Z,6.79
2019-02-17T19:50:18.822Z,6.71
2019-02-17T19:52:47.433Z,6.59
2019-02-17T19:55:16.035Z,6.51
2019-02-17T19:57:44.645Z,6.63
2019-02-17T20:00:17.509Z,6.58
2019-02-17T20:02:59.892Z,6.34
2019-02-17T20:05:31.323Z,6.31
2019-02-17T20:08:00.226Z,6.36
2019-02-17T20:10:29.128Z,6.41
2019-02-17T20:12:58.014Z,6.29
2019-02-17T20:15:28.563Z,6.29
2019-02-17T20:17:57.458Z,6.26
2019-02-17T20:20:27.858Z,6.28
2019-02-17T20:22:56.724Z,6.30
2019-02-17T20:25:25.630Z,6.22
2019-02-17T20:27:54.519Z,6.03
2019-02-17T20:30:23.410Z,6.14
2019-02-17T20:32:52.292Z,6.10
2019-02-17T20:35:21.239Z,6.05
2019-02-17T20:37:50.103Z,6.04
2019-02-17T20:40:19.375Z,6.01
2019-02-17T20:42:48.247Z,6.16
2019-02-17T20:45:17.179Z,6.25
2019-02-17T20:47:46.046Z,6.11
2019-02-17T20:50:18.835Z,6.01
2019-02-17T20:52:47.758Z,5.93
2019-02-17T20:55:16.635Z,5.90
2019-02-17T20:57:45.549Z,5.81
2019-02-17T21:00:23.126Z,5.65
2019-02-17T21:02:52.014Z,5.53
2019-02-17T21:05:20.909Z,5.58
2019-02-17T21:07:49.804Z,5.61
2019-02-17T21:10:18.658Z,5.66
2019-02-17T21:12:47.634Z,5.64
2019-02-17T21:15:21.271Z,5.73
2019-02-17T21:17:50.178Z,5.52
2019-02-17T21:20:19.673Z,5.42
2019-02-17T21:22:48.581Z,5.30
2019-02-17T21:25:17.445Z,5.31
2019-02-17T21:27:46.358Z,5.40
2019-02-17T21:30:18.070Z,5.33
2019-02-17T21:32:47.513Z,5.35
2019-02-17T21:35:17.242Z,5.28
2019-02-17T21:37:46.221Z,5.22
2019-02-17T21:40:15.450Z,5.23
2019-02-17T21:42:44.360Z,5.22
2019-02-17T21:45:15.932Z,5.29
2019-02-17T21:47:44.848Z,5.01
2019-02-17T21:50:16.458Z,5.02
2019-02-17T21:52:45.356Z,5.09
2019-02-17T21:55:16.927Z,5.16
2019-02-17T21:57:45.803Z,5.14
2019-02-17T22:00:19.915Z,5.06
2019-02-17T22:02:49.144Z,5.07
2019-02-17T22:05:19.953Z,5.02
2019-02-17T22:07:48.851Z,5.04
2019-02-17T22:10:18.864Z,5.12
2019-02-17T22:12:47.741Z,5.10
2019-02-17T22:15:21.254Z,5.01
2019-02-17T22:17:50.137Z,5.07
2019-02-17T22:20:19.009Z,4.92
2019-02-17T22:22:47.884Z,4.84
2019-02-17T22:25:16.907Z,5.10
2019-02-17T22:27:46.601Z,4.99
2019-02-17T22:30:15.971Z,4.84
2019-02-17T22:32:45.031Z,4.89
2019-02-17T22:35:13.971Z,4.85
2019-02-17T22:37:42.897Z,4.72
2019-02-17T22:40:14.824Z,4.79
2019-02-17T22:42:43.659Z,4.69
2019-02-17T22:45:13.173Z,4.79
2019-02-17T22:47:42.098Z,4.77
2019-02-17T22:50:12.697Z,4.76
2019-02-17T22:52:41.593Z,4.64
2019-02-17T22:55:11.506Z,4.63
2019-02-17T22:57:40.343Z,4.71
2019-02-17T23:00:31.341Z,4.56
2019-02-17T23:03:00.192Z,4.67
2019-02-17T23:05:29.071Z,4.58
2019-02-17T23:07:57.952Z,4.49
2019-02-17T23:10:26.831Z,4.58
2019-02-17T23:12:55.731Z,4.55
2019-02-17T23:15:24.637Z,4.53
2019-02-17T23:17:53.512Z,4.58
2019-02-17T23:20:22.401Z,4.65
2019-02-17T23:22:51.293Z,4.75
2019-02-17T23:25:20.216Z,4.74
2019-02-17T23:27:49.073Z,4.78
2019-02-17T23:30:17.950Z,4.71
2019-02-17T23:32:46.809Z,4.64
2019-02-17T23:35:15.694Z,4.65
2019-02-17T23:37:44.572Z,4.59
2019-02-17T23:40:13.440Z,4.60
2019-02-17T23:42:42.325Z,4.83
2019-02-17T23:45:14.789Z,4.76
2019-02-17T23:47:43.643Z,4.54
2019-02-17T23:50:13.749Z,4.25
2019-02-17T23:52:42.881Z,4.23
2019-02-17T23:55:12.685Z,4.35
2019-02-17T23:57:41.533Z,3.93
